Aérodrome :
LOGIN :

S'inscrire | Disclaimer

   EN    FR    IT 

 










Légende :    VFR   VFR Marginal   IFR   IFR Intensif   IFR Très Intensif
Visi : 
Plafond : 
>= 8 km
>= 3000ft
5 à 8 km
1000 à 3000 ft
1500m à 5 km
500 à 1000 ft
800 à 1500m
200 à 500 ft
< 800m
< 200 ft
Symboles :   Orages  Brouillard  Fortes neiges  Fortes précipitations  Vent > 20 kt
SIGMETs :   Divers  Orages  Givrage  Turbulence  Onde Orograph.  Cendres Volcan.







- Altitude de l'aérodrome : 1504 ft
- Code IATA : PNA


LEPP - Noain Pamplona

DERNIER METAR :
  • 222330Z AUTO 30003KT 2800 -RA BR BKN018/// OVC023/// 10/10 Q1029

METARs EXPIRÉS :
  • 222300Z 30003KT 6000 -DZ FEW008 BKN018 10/10 Q1029
  • 222230Z 30003KT 9000 -DZ FEW008 BKN016 10/10 Q1029
  • 222200Z 31002KT 9000 -DZ FEW008 BKN016 10/10 Q1029
  • 222130Z 30002KT 8000 -DZ FEW008 BKN019 11/10 Q1029
  • 222100Z 28002KT 9999 FEW008 BKN022 11/10 Q1029

TAF TAF LEPP
Valide du 22 à 21h jusqu'au 23 à 21h UTC


222000Z 2221/2321 33006KT 9999 SCT020 BKN030 TX14/2314Z TN06/2306Z
TEMPO 2221/2308 3000 -DZ BR BKN010
PROB40
TEMPO 2300/2308 1500 BCFG BKN005
Pas de NOTAMs connus pour ce terrain.



MET'MAP, la Météo Aéronautique d'un coup d'oeil ! - Copyright ORBIFLY Décembre 2007 - Disclaimer

ORBIFLY MET'MAP TEAM :

Programmation & Développement : Alexandra Zaïnal
Conception & Développement : Baudouin d'Aumeries
Co-Programmation & Développement : Marc-Olivier Méhu
Soutien technique & logistique : Manuel Goepfert

Contact : metmap@orbifly.com




SOURCES & CREDITS :

   NOAA